sensor_id;sensor_type;location;lat;lon;timestamp;pressure;altitude;pressure_sealevel;temperature;humidity
21234;BME280;10774;42.178;26.578;2024-01-06T00:01:28;100073.34;;;9.11;100.00
21234;BME280;10774;42.178;26.578;2024-01-06T00:03:54;100077.47;;;9.01;100.00
21234;BME280;10774;42.178;26.578;2024-01-06T00:06:20;100078.69;;;8.96;100.00
21234;BME280;10774;42.178;26.578;2024-01-06T00:08:47;100068.84;;;8.96;100.00
21234;BME280;10774;42.178;26.578;2024-01-06T00:11:19;100080.72;;;9.08;100.00
21234;BME280;10774;42.178;26.578;2024-01-06T00:13:44;100072.91;;;9.03;100.00
21234;BME280;10774;42.178;26.578;2024-01-06T00:16:09;100086.66;;;9.13;100.00
21234;BME280;10774;42.178;26.578;2024-01-06T00:18:35;100095.38;;;9.16;100.00
21234;BME280;10774;42.178;26.578;2024-01-06T00:21:00;100088.13;;;9.19;100.00
21234;BME280;10774;42.178;26.578;2024-01-06T00:23:26;100096.22;;;9.01;100.00
21234;BME280;10774;42.178;26.578;2024-01-06T00:25:51;100085.50;;;8.85;100.00
21234;BME280;10774;42.178;26.578;2024-01-06T00:28:16;100072.03;;;8.71;100.00
21234;BME280;10774;42.178;26.578;2024-01-06T00:30:42;100097.97;;;9.02;100.00
21234;BME280;10774;42.178;26.578;2024-01-06T00:33:07;100082.41;;;8.93;100.00
21234;BME280;10774;42.178;26.578;2024-01-06T00:35:32;100084.63;;;8.85;100.00
21234;BME280;10774;42.178;26.578;2024-01-06T00:37:58;100078.91;;;8.42;100.00
21234;BME280;10774;42.178;26.578;2024-01-06T00:40:25;100084.31;;;8.58;100.00
21234;BME280;10774;42.178;26.578;2024-01-06T00:42:51;100071.13;;;8.55;100.00
21234;BME280;10774;42.178;26.578;2024-01-06T00:45:16;100080.06;;;8.54;100.00
21234;BME280;10774;42.178;26.578;2024-01-06T00:47:42;100074.19;;;8.30;100.00
21234;BME280;10774;42.178;26.578;2024-01-06T00:50:08;100072.63;;;8.43;100.00
21234;BME280;10774;42.178;26.578;2024-01-06T00:52:33;100072.84;;;8.21;100.00
21234;BME280;10774;42.178;26.578;2024-01-06T00:54:58;100047.25;;;8.33;100.00
21234;BME280;10774;42.178;26.578;2024-01-06T00:57:24;100050.72;;;8.52;100.00
21234;BME280;10774;42.178;26.578;2024-01-06T00:59:50;100032.66;;;8.40;100.00
21234;BME280;10774;42.178;26.578;2024-01-06T01:39:49;100036.06;;;9.54;100.00
21234;BME280;10774;42.178;26.578;2024-01-06T01:42:14;100027.25;;;9.52;100.00
21234;BME280;10774;42.178;26.578;2024-01-06T01:44:39;100035.75;;;9.60;100.00
21234;BME280;10774;42.178;26.578;2024-01-06T01:47:05;100035.38;;;9.66;100.00
21234;BME280;10774;42.178;26.578;2024-01-06T01:49:31;100024.19;;;9.74;100.00
21234;BME280;10774;42.178;26.578;2024-01-06T01:51:57;100024.56;;;9.68;100.00
21234;BME280;10774;42.178;26.578;2024-01-06T01:54:23;100018.91;;;9.73;100.00
21234;BME280;10774;42.178;26.578;2024-01-06T01:56:49;100008.31;;;9.85;100.00
21234;BME280;10774;42.178;26.578;2024-01-06T01:59:17;100006.28;;;9.75;100.00
21234;BME280;10774;42.178;26.578;2024-01-06T02:01:43;100019.28;;;9.66;100.00
21234;BME280;10774;42.178;26.578;2024-01-06T02:04:09;100003.59;;;9.75;100.00
21234;BME280;10774;42.178;26.578;2024-01-06T02:06:35;100015.88;;;9.79;100.00
21234;BME280;10774;42.178;26.578;2024-01-06T02:09:00;100008.19;;;9.73;100.00
21234;BME280;10774;42.178;26.578;2024-01-06T02:11:26;99999.63;;;9.82;100.00
21234;BME280;10774;42.178;26.578;2024-01-06T02:13:51;99994.47;;;9.93;100.00
21234;BME280;10774;42.178;26.578;2024-01-06T02:16:17;99976.84;;;9.89;100.00
21234;BME280;10774;42.178;26.578;2024-01-06T02:18:42;99982.19;;;9.89;100.00
21234;BME280;10774;42.178;26.578;2024-01-06T02:21:09;99980.66;;;9.85;100.00
21234;BME280;10774;42.178;26.578;2024-01-06T02:23:35;99976.06;;;10.01;100.00
21234;BME280;10774;42.178;26.578;2024-01-06T02:26:01;99980.03;;;10.10;100.00
21234;BME280;10774;42.178;26.578;2024-01-06T02:28:27;99989.13;;;10.07;100.00
21234;BME280;10774;42.178;26.578;2024-01-06T02:30:52;99982.97;;;10.05;100.00
21234;BME280;10774;42.178;26.578;2024-01-06T02:33:18;99982.97;;;10.05;100.00
21234;BME280;10774;42.178;26.578;2024-01-06T02:35:49;99969.41;;;10.08;100.00
21234;BME280;10774;42.178;26.578;2024-01-06T02:38:14;99979.16;;;10.09;100.00
21234;BME280;10774;42.178;26.578;2024-01-06T02:40:39;99962.69;;;9.87;100.00
21234;BME280;10774;42.178;26.578;2024-01-06T02:43:05;99979.34;;;9.92;100.00
21234;BME280;10774;42.178;26.578;2024-01-06T02:45:31;99969.00;;;10.00;100.00
21234;BME280;10774;42.178;26.578;2024-01-06T02:47:56;99961.91;;;9.99;100.00
21234;BME280;10774;42.178;26.578;2024-01-06T02:50:21;99956.16;;;9.91;100.00
21234;BME280;10774;42.178;26.578;2024-01-06T02:52:47;99960.50;;;9.63;100.00
21234;BME280;10774;42.178;26.578;2024-01-06T02:55:13;99968.75;;;9.75;100.00
21234;BME280;10774;42.178;26.578;2024-01-06T02:57:39;99947.31;;;9.60;100.00
21234;BME280;10774;42.178;26.578;2024-01-06T03:00:06;99961.88;;;9.71;100.00
21234;BME280;10774;42.178;26.578;2024-01-06T03:02:32;99958.69;;;9.34;100.00
21234;BME280;10774;42.178;26.578;2024-01-06T03:04:58;99957.53;;;9.08;100.00
21234;BME280;10774;42.178;26.578;2024-01-06T03:07:23;99968.22;;;9.24;100.00
21234;BME280;10774;42.178;26.578;2024-01-06T03:09:49;99954.59;;;9.12;100.00
21234;BME280;10774;42.178;26.578;2024-01-06T03:12:14;99957.16;;;9.30;100.00
21234;BME280;10774;42.178;26.578;2024-01-06T03:14:40;99943.84;;;9.28;100.00
21234;BME280;10774;42.178;26.578;2024-01-06T03:17:05;99958.50;;;9.37;100.00
21234;BME280;10774;42.178;26.578;2024-01-06T03:19:31;99947.63;;;9.40;100.00
21234;BME280;10774;42.178;26.578;2024-01-06T03:21:57;99950.19;;;9.41;100.00
21234;BME280;10774;42.178;26.578;2024-01-06T03:24:24;99946.88;;;9.52;100.00
21234;BME280;10774;42.178;26.578;2024-01-06T03:26:50;99957.81;;;9.49;100.00
21234;BME280;10774;42.178;26.578;2024-01-06T03:29:15;99947.09;;;9.49;100.00
21234;BME280;10774;42.178;26.578;2024-01-06T03:31:44;99952.47;;;9.63;100.00
21234;BME280;10774;42.178;26.578;2024-01-06T03:34:09;99958.03;;;9.60;100.00
21234;BME280;10774;42.178;26.578;2024-01-06T03:36:41;99956.84;;;9.64;100.00
21234;BME280;10774;42.178;26.578;2024-01-06T03:39:07;99950.31;;;9.54;100.00
21234;BME280;10774;42.178;26.578;2024-01-06T03:41:32;99954.75;;;9.55;100.00
21234;BME280;10774;42.178;26.578;2024-01-06T03:43:58;99953.97;;;9.53;100.00
21234;BME280;10774;42.178;26.578;2024-01-06T03:46:24;99963.69;;;9.40;100.00
21234;BME280;10774;42.178;26.578;2024-01-06T03:48:49;99959.94;;;9.12;100.00
21234;BME280;10774;42.178;26.578;2024-01-06T03:51:15;99964.75;;;9.22;100.00
21234;BME280;10774;42.178;26.578;2024-01-06T03:53:41;99966.66;;;9.20;100.00
21234;BME280;10774;42.178;26.578;2024-01-06T03:56:06;99960.56;;;9.18;100.00
21234;BME280;10774;42.178;26.578;2024-01-06T03:58:32;99961.47;;;9.16;100.00
21234;BME280;10774;42.178;26.578;2024-01-06T04:00:58;99974.28;;;8.96;100.00
21234;BME280;10774;42.178;26.578;2024-01-06T04:03:23;99957.19;;;8.82;100.00
21234;BME280;10774;42.178;26.578;2024-01-06T04:05:49;99957.34;;;8.95;100.00
21234;BME280;10774;42.178;26.578;2024-01-06T04:08:14;99952.44;;;8.87;100.00
21234;BME280;10774;42.178;26.578;2024-01-06T04:10:40;99956.94;;;8.87;100.00
21234;BME280;10774;42.178;26.578;2024-01-06T04:13:07;99951.50;;;8.73;100.00
21234;BME280;10774;42.178;26.578;2024-01-06T04:15:32;99970.50;;;8.84;100.00
21234;BME280;10774;42.178;26.578;2024-01-06T04:18:01;99981.53;;;9.09;100.00
21234;BME280;10774;42.178;26.578;2024-01-06T04:20:28;99969.25;;;9.21;100.00
21234;BME280;10774;42.178;26.578;2024-01-06T04:22:53;99985.69;;;9.15;100.00
21234;BME280;10774;42.178;26.578;2024-01-06T04:25:18;99969.59;;;9.15;100.00
21234;BME280;10774;42.178;26.578;2024-01-06T04:27:44;99963.75;;;8.93;100.00
21234;BME280;10774;42.178;26.578;2024-01-06T04:30:11;99961.69;;;8.82;100.00
21234;BME280;10774;42.178;26.578;2024-01-06T04:32:37;99965.66;;;8.90;100.00
21234;BME280;10774;42.178;26.578;2024-01-06T04:35:02;99962.72;;;8.95;100.00
21234;BME280;10774;42.178;26.578;2024-01-06T04:37:28;99970.38;;;9.01;100.00
21234;BME280;10774;42.178;26.578;2024-01-06T04:39:53;99962.56;;;8.98;100.00
21234;BME280;10774;42.178;26.578;2024-01-06T04:42:19;99958.75;;;9.02;100.00
21234;BME280;10774;42.178;26.578;2024-01-06T04:44:47;99974.47;;;9.08;100.00
21234;BME280;10774;42.178;26.578;2024-01-06T04:47:12;99968.75;;;9.14;100.00
21234;BME280;10774;42.178;26.578;2024-01-06T04:49:38;99962.63;;;9.12;100.00
21234;BME280;10774;42.178;26.578;2024-01-06T04:52:04;99969.78;;;8.96;100.00
21234;BME280;10774;42.178;26.578;2024-01-06T04:54:29;99978.63;;;8.98;100.00
21234;BME280;10774;42.178;26.578;2024-01-06T04:56:54;99978.88;;;8.94;100.00
21234;BME280;10774;42.178;26.578;2024-01-06T04:59:21;99981.88;;;9.03;100.00
21234;BME280;10774;42.178;26.578;2024-01-06T05:01:46;99976.19;;;9.09;100.00
21234;BME280;10774;42.178;26.578;2024-01-06T05:04:12;99967.19;;;9.10;100.00
21234;BME280;10774;42.178;26.578;2024-01-06T05:06:37;99962.19;;;9.04;100.00
21234;BME280;10774;42.178;26.578;2024-01-06T05:09:03;99972.03;;;9.20;100.00
21234;BME280;10774;42.178;26.578;2024-01-06T05:11:29;99975.06;;;9.13;100.00
21234;BME280;10774;42.178;26.578;2024-01-06T05:13:54;99967.03;;;9.13;100.00
21234;BME280;10774;42.178;26.578;2024-01-06T05:16:19;99966.34;;;9.10;100.00
21234;BME280;10774;42.178;26.578;2024-01-06T05:18:45;99964.94;;;9.19;100.00
21234;BME280;10774;42.178;26.578;2024-01-06T05:21:10;99968.22;;;9.24;100.00
21234;BME280;10774;42.178;26.578;2024-01-06T05:23:36;99971.81;;;9.23;100.00
21234;BME280;10774;42.178;26.578;2024-01-06T05:26:01;99973.38;;;9.27;100.00
21234;BME280;10774;42.178;26.578;2024-01-06T05:28:26;99981.69;;;9.22;100.00
21234;BME280;10774;42.178;26.578;2024-01-06T05:30:52;99977.19;;;9.23;100.00
21234;BME280;10774;42.178;26.578;2024-01-06T05:33:17;99975.31;;;9.25;100.00
21234;BME280;10774;42.178;26.578;2024-01-06T05:35:43;99975.81;;;9.31;100.00
21234;BME280;10774;42.178;26.578;2024-01-06T05:38:08;99969.16;;;9.23;100.00
21234;BME280;10774;42.178;26.578;2024-01-06T05:40:34;99980.56;;;9.26;100.00
21234;BME280;10774;42.178;26.578;2024-01-06T05:42:59;99976.66;;;9.32;100.00
21234;BME280;10774;42.178;26.578;2024-01-06T05:45:25;99979.16;;;9.35;100.00
21234;BME280;10774;42.178;26.578;2024-01-06T05:47:50;99970.06;;;9.37;100.00
21234;BME280;10774;42.178;26.578;2024-01-06T05:50:16;99959.28;;;9.39;100.00
21234;BME280;10774;42.178;26.578;2024-01-06T05:52:42;99968.69;;;9.46;100.00
21234;BME280;10774;42.178;26.578;2024-01-06T05:55:08;99966.97;;;9.45;100.00
21234;BME280;10774;42.178;26.578;2024-01-06T05:57:34;99973.69;;;9.52;100.00
21234;BME280;10774;42.178;26.578;2024-01-06T05:59:59;99982.22;;;9.59;100.00
21234;BME280;10774;42.178;26.578;2024-01-06T06:02:25;99975.63;;;9.64;100.00
21234;BME280;10774;42.178;26.578;2024-01-06T06:04:51;99975.63;;;9.64;100.00
21234;BME280;10774;42.178;26.578;2024-01-06T06:07:17;99974.84;;;9.62;100.00
21234;BME280;10774;42.178;26.578;2024-01-06T06:09:43;99981.78;;;9.66;100.00
21234;BME280;10774;42.178;26.578;2024-01-06T06:12:08;99983.66;;;9.64;100.00
21234;BME280;10774;42.178;26.578;2024-01-06T06:14:34;99989.97;;;9.63;100.00
21234;BME280;10774;42.178;26.578;2024-01-06T06:16:59;99991.53;;;9.67;100.00
21234;BME280;10774;42.178;26.578;2024-01-06T06:19:24;99990.66;;;9.67;100.00
21234;BME280;10774;42.178;26.578;2024-01-06T06:21:50;99987.63;;;9.73;100.00
21234;BME280;10774;42.178;26.578;2024-01-06T06:24:15;99973.09;;;9.77;100.00
21234;BME280;10774;42.178;26.578;2024-01-06T06:26:41;99978.88;;;10.00;100.00
21234;BME280;10774;42.178;26.578;2024-01-06T06:29:06;99979.56;;;10.03;100.00
21234;BME280;10774;42.178;26.578;2024-01-06T06:31:32;99975.91;;;10.04;100.00
21234;BME280;10774;42.178;26.578;2024-01-06T06:33:57;99982.81;;;10.08;100.00
21234;BME280;10774;42.178;26.578;2024-01-06T06:36:22;99983.56;;;10.10;100.00
21234;BME280;10774;42.178;26.578;2024-01-06T06:38:48;99982.44;;;10.14;100.00
21234;BME280;10774;42.178;26.578;2024-01-06T06:41:13;99989.34;;;10.18;100.00
21234;BME280;10774;42.178;26.578;2024-01-06T06:43:39;99982.16;;;10.19;100.00
21234;BME280;10774;42.178;26.578;2024-01-06T06:46:04;99974.75;;;10.22;100.00
21234;BME280;10774;42.178;26.578;2024-01-06T06:48:30;99987.66;;;10.46;100.00
21234;BME280;10774;42.178;26.578;2024-01-06T06:50:55;99979.78;;;10.57;100.00
21234;BME280;10774;42.178;26.578;2024-01-06T06:53:20;99985.59;;;10.64;100.00
21234;BME280;10774;42.178;26.578;2024-01-06T06:55:46;99980.91;;;10.67;100.00
21234;BME280;10774;42.178;26.578;2024-01-06T06:58:12;99976.84;;;10.89;100.00
21234;BME280;10774;42.178;26.578;2024-01-06T07:00:37;99985.22;;;11.11;100.00
21234;BME280;10774;42.178;26.578;2024-01-06T07:03:04;99975.34;;;11.12;100.00
21234;BME280;10774;42.178;26.578;2024-01-06T07:05:29;99975.34;;;11.12;100.00
21234;BME280;10774;42.178;26.578;2024-01-06T07:07:55;99986.16;;;11.24;100.00
21234;BME280;10774;42.178;26.578;2024-01-06T07:10:20;99983.09;;;11.16;100.00
21234;BME280;10774;42.178;26.578;2024-01-06T07:12:46;99982.88;;;11.34;100.00
21234;BME280;10774;42.178;26.578;2024-01-06T07:15:11;99971.19;;;11.20;100.00
21234;BME280;10774;42.178;26.578;2024-01-06T07:17:37;99968.25;;;11.38;100.00
21234;BME280;10774;42.178;26.578;2024-01-06T07:20:05;99970.31;;;11.47;100.00
21234;BME280;10774;42.178;26.578;2024-01-06T07:22:32;99970.19;;;11.36;100.00
21234;BME280;10774;42.178;26.578;2024-01-06T07:24:59;99968.38;;;11.49;100.00
21234;BME280;10774;42.178;26.578;2024-01-06T07:27:25;99960.13;;;11.65;100.00
21234;BME280;10774;42.178;26.578;2024-01-06T07:29:50;99953.00;;;11.91;100.00
21234;BME280;10774;42.178;26.578;2024-01-06T07:32:16;99956.25;;;12.09;100.00
21234;BME280;10774;42.178;26.578;2024-01-06T07:34:41;99951.41;;;12.26;100.00
21234;BME280;10774;42.178;26.578;2024-01-06T07:37:08;99945.47;;;11.83;100.00
21234;BME280;10774;42.178;26.578;2024-01-06T07:39:33;99949.78;;;11.98;100.00
21234;BME280;10774;42.178;26.578;2024-01-06T07:41:59;99953.88;;;12.04;100.00
21234;BME280;10774;42.178;26.578;2024-01-06T07:44:24;99945.91;;;11.90;100.00
21234;BME280;10774;42.178;26.578;2024-01-06T07:46:52;99934.28;;;11.89;100.00
21234;BME280;10774;42.178;26.578;2024-01-06T07:49:18;99934.28;;;12.02;100.00
21234;BME280;10774;42.178;26.578;2024-01-06T07:51:43;99910.59;;;12.07;100.00
21234;BME280;10774;42.178;26.578;2024-01-06T07:54:09;99928.44;;;12.46;100.00
21234;BME280;10774;42.178;26.578;2024-01-06T07:56:35;99918.63;;;12.58;100.00
21234;BME280;10774;42.178;26.578;2024-01-06T07:59:04;99917.38;;;12.75;100.00
21234;BME280;10774;42.178;26.578;2024-01-06T08:01:30;99923.00;;;12.96;100.00
21234;BME280;10774;42.178;26.578;2024-01-06T08:03:55;99928.03;;;13.13;100.00
21234;BME280;10774;42.178;26.578;2024-01-06T08:06:21;99919.66;;;13.05;100.00
21234;BME280;10774;42.178;26.578;2024-01-06T08:08:46;99915.75;;;13.09;100.00
21234;BME280;10774;42.178;26.578;2024-01-06T08:11:12;99931.31;;;13.29;100.00
21234;BME280;10774;42.178;26.578;2024-01-06T08:13:37;99923.84;;;13.33;100.00
21234;BME280;10774;42.178;26.578;2024-01-06T08:16:03;99923.22;;;13.29;100.00
21234;BME280;10774;42.178;26.578;2024-01-06T08:18:29;99901.34;;;13.45;100.00
21234;BME280;10774;42.178;26.578;2024-01-06T08:20:55;99916.09;;;13.64;100.00
21234;BME280;10774;42.178;26.578;2024-01-06T08:23:20;99908.16;;;13.62;100.00
21234;BME280;10774;42.178;26.578;2024-01-06T08:25:46;99897.88;;;13.67;100.00
21234;BME280;10774;42.178;26.578;2024-01-06T08:28:12;99891.75;;;13.76;100.00
21234;BME280;10774;42.178;26.578;2024-01-06T08:30:37;99903.41;;;13.77;100.00
21234;BME280;10774;42.178;26.578;2024-01-06T08:33:03;99885.38;;;13.77;100.00
21234;BME280;10774;42.178;26.578;2024-01-06T08:35:28;99894.97;;;13.93;100.00
21234;BME280;10774;42.178;26.578;2024-01-06T08:37:54;99889.09;;;13.99;100.00
21234;BME280;10774;42.178;26.578;2024-01-06T08:40:19;99890.19;;;14.07;100.00
21234;BME280;10774;42.178;26.578;2024-01-06T08:42:44;99885.16;;;14.03;100.00
21234;BME280;10774;42.178;26.578;2024-01-06T08:45:10;99876.31;;;14.01;100.00
21234;BME280;10774;42.178;26.578;2024-01-06T08:47:35;99894.84;;;14.05;100.00
21234;BME280;10774;42.178;26.578;2024-01-06T08:50:00;99883.91;;;13.96;100.00
21234;BME280;10774;42.178;26.578;2024-01-06T08:52:26;99882.44;;;13.92;100.00
21234;BME280;10774;42.178;26.578;2024-01-06T08:54:51;99883.44;;;14.02;100.00
21234;BME280;10774;42.178;26.578;2024-01-06T08:57:17;99882.22;;;14.06;100.00
21234;BME280;10774;42.178;26.578;2024-01-06T08:59:43;99884.69;;;14.09;100.00
21234;BME280;10774;42.178;26.578;2024-01-06T09:02:10;99875.97;;;14.17;100.00
21234;BME280;10774;42.178;26.578;2024-01-06T09:04:36;99879.16;;;14.33;100.00
21234;BME280;10774;42.178;26.578;2024-01-06T09:07:01;99870.19;;;14.55;100.00
21234;BME280;10774;42.178;26.578;2024-01-06T09:09:27;99884.63;;;14.76;100.00
21234;BME280;10774;42.178;26.578;2024-01-06T09:11:53;99869.69;;;14.72;100.00
21234;BME280;10774;42.178;26.578;2024-01-06T09:14:19;99869.91;;;14.69;100.00
21234;BME280;10774;42.178;26.578;2024-01-06T09:16:45;99867.22;;;14.69;100.00
21234;BME280;10774;42.178;26.578;2024-01-06T09:19:10;99875.09;;;14.72;100.00
21234;BME280;10774;42.178;26.578;2024-01-06T09:21:35;99870.13;;;14.88;100.00
21234;BME280;10774;42.178;26.578;2024-01-06T09:24:01;99855.16;;;14.84;100.00
21234;BME280;10774;42.178;26.578;2024-01-06T09:26:32;99858.59;;;14.75;100.00
21234;BME280;10774;42.178;26.578;2024-01-06T09:29:01;99851.22;;;14.88;100.00
21234;BME280;10774;42.178;26.578;2024-01-06T09:31:27;99849.22;;;14.90;100.00
21234;BME280;10774;42.178;26.578;2024-01-06T09:33:52;99845.81;;;14.88;100.00
21234;BME280;10774;42.178;26.578;2024-01-06T09:36:18;99852.31;;;14.86;100.00
21234;BME280;10774;42.178;26.578;2024-01-06T09:38:43;99851.53;;;14.95;100.00
21234;BME280;10774;42.178;26.578;2024-01-06T09:41:09;99844.66;;;15.23;100.00
21234;BME280;10774;42.178;26.578;2024-01-06T09:43:34;99846.41;;;15.24;100.00
21234;BME280;10774;42.178;26.578;2024-01-06T09:46:24;99856.41;;;15.33;100.00
21234;BME280;10774;42.178;26.578;2024-01-06T09:48:53;99853.72;;;15.33;100.00
21234;BME280;10774;42.178;26.578;2024-01-06T09:51:20;99863.13;;;15.18;100.00
21234;BME280;10774;42.178;26.578;2024-01-06T09:53:55;99853.88;;;15.00;100.00
21234;BME280;10774;42.178;26.578;2024-01-06T09:56:24;99853.34;;;15.06;100.00
21234;BME280;10774;42.178;26.578;2024-01-06T09:58:50;99830.25;;;15.02;100.00
21234;BME280;10774;42.178;26.578;2024-01-06T10:01:17;99833.56;;;15.05;100.00
21234;BME280;10774;42.178;26.578;2024-01-06T10:03:42;99844.84;;;14.78;100.00
21234;BME280;10774;42.178;26.578;2024-01-06T10:06:08;99836.00;;;14.76;100.00
21234;BME280;10774;42.178;26.578;2024-01-06T10:08:35;99826.88;;;14.88;100.00
21234;BME280;10774;42.178;26.578;2024-01-06T10:11:00;99826.13;;;14.86;100.00
21234;BME280;10774;42.178;26.578;2024-01-06T10:13:26;99834.72;;;14.91;100.00
21234;BME280;10774;42.178;26.578;2024-01-06T10:15:54;99825.81;;;14.80;100.00
21234;BME280;10774;42.178;26.578;2024-01-06T10:18:19;99820.25;;;14.93;100.00
21234;BME280;10774;42.178;26.578;2024-01-06T10:20:45;99809.72;;;15.10;100.00
21234;BME280;10774;42.178;26.578;2024-01-06T10:23:10;99800.63;;;15.32;100.00
21234;BME280;10774;42.178;26.578;2024-01-06T10:25:37;99791.25;;;15.36;100.00
21234;BME280;10774;42.178;26.578;2024-01-06T10:28:02;99798.38;;;15.16;100.00
21234;BME280;10774;42.178;26.578;2024-01-06T10:30:28;99792.41;;;15.02;100.00
21234;BME280;10774;42.178;26.578;2024-01-06T10:32:54;99782.47;;;15.02;100.00
21234;BME280;10774;42.178;26.578;2024-01-06T10:35:19;99785.31;;;15.01;100.00
21234;BME280;10774;42.178;26.578;2024-01-06T10:37:45;99772.25;;;15.06;100.00
21234;BME280;10774;42.178;26.578;2024-01-06T10:40:15;99761.19;;;15.09;100.00
21234;BME280;10774;42.178;26.578;2024-01-06T10:42:44;99753.78;;;15.11;100.00
21234;BME280;10774;42.178;26.578;2024-01-06T10:45:12;99765.06;;;15.16;100.00
21234;BME280;10774;42.178;26.578;2024-01-06T10:47:40;99755.44;;;15.02;100.00
21234;BME280;10774;42.178;26.578;2024-01-06T10:50:06;99740.41;;;14.88;100.00
21234;BME280;10774;42.178;26.578;2024-01-06T10:52:34;99740.78;;;14.84;100.00
21234;BME280;10774;42.178;26.578;2024-01-06T10:55:01;99742.50;;;14.85;100.00
21234;BME280;10774;42.178;26.578;2024-01-06T10:57:28;99741.66;;;14.84;100.00
21234;BME280;10774;42.178;26.578;2024-01-06T10:59:57;99722.59;;;14.86;100.00
21234;BME280;10774;42.178;26.578;2024-01-06T11:02:24;99725.66;;;14.93;100.00
21234;BME280;10774;42.178;26.578;2024-01-06T11:04:50;99706.47;;;14.96;100.00
21234;BME280;10774;42.178;26.578;2024-01-06T11:07:18;99725.38;;;14.96;100.00
21234;BME280;10774;42.178;26.578;2024-01-06T11:09:56;99717.78;;;14.89;100.00
21234;BME280;10774;42.178;26.578;2024-01-06T11:12:22;99709.81;;;14.88;100.00
21234;BME280;10774;42.178;26.578;2024-01-06T11:14:47;99711.69;;;14.87;100.00
21234;BME280;10774;42.178;26.578;2024-01-06T11:17:13;99725.66;;;14.93;100.00
21234;BME280;10774;42.178;26.578;2024-01-06T11:20:05;99706.75;;;14.93;100.00
21234;BME280;10774;42.178;26.578;2024-01-06T11:22:31;99699.88;;;14.88;100.00
21234;BME280;10774;42.178;26.578;2024-01-06T11:25:06;99703.81;;;14.84;100.00
21234;BME280;10774;42.178;26.578;2024-01-06T11:27:33;99685.81;;;14.74;100.00
21234;BME280;10774;42.178;26.578;2024-01-06T11:30:00;99688.91;;;14.69;100.00
21234;BME280;10774;42.178;26.578;2024-01-06T11:32:33;99690.91;;;14.67;100.00
21234;BME280;10774;42.178;26.578;2024-01-06T11:35:11;99670.53;;;14.63;100.00
21234;BME280;10774;42.178;26.578;2024-01-06T11:42:57;99671.31;;;14.75;100.00
21234;BME280;10774;42.178;26.578;2024-01-06T11:45:27;99674.16;;;14.73;100.00
21234;BME280;10774;42.178;26.578;2024-01-06T11:47:57;99655.50;;;14.70;100.00
21234;BME280;10774;42.178;26.578;2024-01-06T11:50:28;99665.34;;;14.71;100.00
21234;BME280;10774;42.178;26.578;2024-01-06T11:52:54;99649.91;;;14.62;100.00
21234;BME280;10774;42.178;26.578;2024-01-06T11:55:21;99649.63;;;14.65;100.00
21234;BME280;10774;42.178;26.578;2024-01-06T11:57:47;99639.69;;;14.65;100.00
21234;BME280;10774;42.178;26.578;2024-01-06T12:00:14;99633.50;;;14.75;100.00
21234;BME280;10774;42.178;26.578;2024-01-06T12:03:05;99633.50;;;14.75;100.00
21234;BME280;10774;42.178;26.578;2024-01-06T12:05:30;99631.41;;;14.78;100.00
21234;BME280;10774;42.178;26.578;2024-01-06T12:08:00;99631.84;;;14.83;100.00
21234;BME280;10774;42.178;26.578;2024-01-06T12:10:27;99622.91;;;14.83;100.00
21234;BME280;10774;42.178;26.578;2024-01-06T12:13:01;99631.31;;;14.89;100.00
21234;BME280;10774;42.178;26.578;2024-01-06T12:15:28;99644.13;;;14.87;100.00
21234;BME280;10774;42.178;26.578;2024-01-06T12:17:54;99637.41;;;14.82;100.00
21234;BME280;10774;42.178;26.578;2024-01-06T12:20:21;99618.50;;;14.82;100.00
21234;BME280;10774;42.178;26.578;2024-01-06T12:22:46;99622.75;;;14.84;100.00
21234;BME280;10774;42.178;26.578;2024-01-06T12:25:12;99629.88;;;14.85;100.00
21234;BME280;10774;42.178;26.578;2024-01-06T12:27:44;99611.56;;;14.68;100.00
21234;BME280;10774;42.178;26.578;2024-01-06T12:30:20;99627.69;;;14.79;100.00
21234;BME280;10774;42.178;26.578;2024-01-06T12:32:51;99628.69;;;14.78;100.00
21234;BME280;10774;42.178;26.578;2024-01-06T12:35:17;99613.34;;;14.79;100.00
21234;BME280;10774;42.178;26.578;2024-01-06T12:37:44;99623.47;;;14.86;100.00
21234;BME280;10774;42.178;26.578;2024-01-06T12:40:13;99633.16;;;14.89;100.00
21234;BME280;10774;42.178;26.578;2024-01-06T12:42:40;99637.25;;;14.83;100.00
21234;BME280;10774;42.178;26.578;2024-01-06T12:45:06;99639.97;;;14.83;100.00
21234;BME280;10774;42.178;26.578;2024-01-06T12:47:32;99627.56;;;14.81;100.00
21234;BME280;10774;42.178;26.578;2024-01-06T12:49:58;99633.41;;;14.86;100.00
21234;BME280;10774;42.178;26.578;2024-01-06T12:52:23;99636.97;;;14.86;100.00
21234;BME280;10774;42.178;26.578;2024-01-06T12:54:49;99634.16;;;14.88;100.00
21234;BME280;10774;42.178;26.578;2024-01-06T12:57:15;99633.03;;;14.90;100.00
21234;BME280;10774;42.178;26.578;2024-01-06T12:59:41;99629.06;;;14.95;100.00
21234;BME280;10774;42.178;26.578;2024-01-06T13:02:06;99616.09;;;14.88;100.00
21234;BME280;10774;42.178;26.578;2024-01-06T13:04:32;99617.81;;;14.89;100.00
21234;BME280;10774;42.178;26.578;2024-01-06T13:06:58;99615.81;;;14.91;100.00
21234;BME280;10774;42.178;26.578;2024-01-06T13:09:23;99617.41;;;14.94;100.00
21234;BME280;10774;42.178;26.578;2024-01-06T13:11:49;99619.81;;;14.87;100.00
21234;BME280;10774;42.178;26.578;2024-01-06T13:14:17;99621.97;;;14.94;100.00
21234;BME280;10774;42.178;26.578;2024-01-06T13:16:43;99615.56;;;14.95;100.00
21234;BME280;10774;42.178;26.578;2024-01-06T13:19:08;99613.16;;;15.01;100.00
21234;BME280;10774;42.178;26.578;2024-01-06T13:21:34;99599.75;;;14.90;100.00